EDT,Max TemperatureF,Mean TemperatureF,Min TemperatureF,Max Dew PointF,MeanDew PointF,Min DewpointF,Max Humidity, Mean Humidity, Min Humidity, Max Sea Level PressureIn, Mean Sea Level PressureIn, Min Sea Level PressureIn, Max VisibilityMiles, Mean VisibilityMiles, Min VisibilityMiles, Max Wind SpeedMPH, Mean Wind SpeedMPH, Max Gust SpeedMPH,PrecipitationIn, CloudCover, Events, WindDirDegrees
2014-4-1,64,55,46,43,36,31,64,50,33,30.04,29.89,29.79,10,10,10,34,17,46,0.01,3,Rain,214
2014-4-2,62,51,41,35,32,28,73,53,34,30.15,30.10,30.05,10,10,10,15,6,,0.00,4,,24
2014-4-3,46,41,36,38,35,28,100,89,50,30.10,29.89,29.75,10,4,1,22,14,28,1.49,8,Rain-Thunderstorm,63
2014-4-4,59,47,37,55,42,28,100,91,70,29.85,29.61,29.44,10,5,0,34,12,47,0.15,8,Fog-Rain,186
2014-4-5,50,40,33,30,27,24,76,65,39,30.19,30.07,29.87,10,10,10,26,18,33,0.00,5,,283
2014-4-6,54,41,28,32,28,26,89,61,35,30.20,30.11,29.98,10,10,6,13,3,,0.00,0,,97
2014-4-7,53,44,36,46,38,27,97,82,56,29.97,29.59,29.42,10,6,2,20,11,25,0.53,6,Rain,39
2014-4-8,60,50,41,41,39,35,96,76,41,29.79,29.61,29.42,10,7,2,21,13,25,0.26,5,Rain,294
2014-4-9,57,47,37,36,33,29,79,60,37,30.01,29.94,29.80,10,10,10,16,8,23,0.00,2,,290
2014-4-10,73,56,41,50,41,35,89,59,35,29.97,29.86,29.74,10,10,8,34,16,44,0.04,2,Rain,213
2014-4-11,64,56,48,50,43,34,93,67,34,30.05,29.99,29.93,10,9,6,9,5,,0.06,3,Rain,160
2014-4-12,75,60,46,52,44,36,83,58,30,30.11,29.99,29.83,10,10,10,25,12,32,0.00,1,,185
2014-4-13,78,67,57,57,53,46,77,59,38,29.83,29.78,29.66,10,10,10,29,15,39,0.00,3,,189
2014-4-14,70,54,37,59,50,36,97,82,45,29.78,29.64,29.50,10,7,1,31,18,43,0.56,7,Rain,250
2014-4-15,35,31,27,33,24,14,96,78,50,30.27,29.93,29.76,10,6,1,20,15,29,0.16,7,Rain-Snow,316
2014-4-16,46,35,24,29,21,14,81,58,44,30.46,30.36,30.27,10,10,10,13,5,17,0.00,0,,127
2014-4-17,66,50,33,38,31,23,79,52,30,30.33,30.29,30.24,10,10,10,21,10,25,0.00,0,,160
2014-4-18,69,56,44,41,38,34,77,53,33,30.28,30.23,30.19,10,10,10,16,7,25,0.00,1,,246
2014-4-19,57,47,37,41,32,12,89,60,20,30.42,30.34,30.28,10,9,5,20,13,24,0.00,0,,49
2014-4-20,73,54,35,40,33,29,85,47,22,30.30,30.22,30.09,10,10,9,12,6,,0.00,0,,138
2014-4-21,78,60,46,52,42,37,74,51,25,30.08,29.94,29.80,10,10,10,17,6,28,0.00,2,Rain,213
2014-4-22,63,52,42,56,46,30,93,71,37,29.93,29.77,29.69,10,8,3,23,13,32,0.02,5,Rain,283
2014-4-23,57,44,34,33,30,28,79,58,34,30.11,30.05,29.94,10,10,9,12,9,,0.00,1,,2
2014-4-24,59,50,43,33,27,19,68,44,24,30.15,30.03,29.81,10,10,10,15,9,,0.00,4,Rain,101
2014-4-25,59,51,43,47,42,27,96,78,40,29.85,29.70,29.62,10,7,2,20,10,28,0.25,6,Rain,254
2014-4-26,66,54,42,43,38,31,80,57,30,30.05,29.90,29.80,10,10,10,20,10,26,0.00,4,,307
2014-4-27,59,48,37,36,34,31,82,65,42,30.15,30.08,29.97,10,10,9,21,13,29,0.00,2,,71
2014-4-28,52,48,44,50,43,34,93,84,63,29.96,29.82,29.70,10,6,2,20,14,30,0.47,7,Rain-Thunderstorm,75
2014-4-29,75,64,52,61,55,48,97,84,40,29.84,29.62,29.52,10,8,2,26,13,41,0.34,6,Rain,158
2014-4-30,70,59,50,54,50,45,93,77,51,29.81,29.76,29.70,10,10,10,20,13,26,0.06,5,Rain,185